Colorado Springs, CO (80902)

3:07 AM MST on November 26, 2014 (GMT -0700)
Highway 115 - Red Rock Valley | Change Station
CLOSE
Current Station
Personal Weather Station
Location: Colorado Springs, CO
Elevation: 6532 ft
Nearby Weather Stations

Elev 6532 ft 38.68 °N, 104.86 °W | Updated 1 minute ago

Mostly Cloudy
Mostly Cloudy
26.6 °F
Feels Like 27 °F
N
2.0
Wind Variable Wind from SW
Gusts 9.0 mph

Today
High -- | Low -- °F
--% Chance of Precip.
Yesterday
High -- | Low -- °F
Precip. -- in
6:53 AM 4:39 PM
Waxing Crescent, 18% visible
Pressure 30.26 in
Visibility 10.0 miles
Clouds Overcast 1600 ft
Windchill 27 °F
Dew Point 22 °F
Humidity 84%
Rainfall 0.00 in
Snow Depth Not available.
UV 0 out of 12
Pollen .10 out of 12
Air Quality Not available.
Flu Activity Not available.
METAR KFCS 260958Z AUTO 19006KT 10SM OVC016 M03/M05 A3015 RMK AO2 PRESRR SLP247 T10341047

More Conditions Fewer Conditions

Pressure 30.26 in
Visibility 10.0 miles
Clouds Overcast 1600 ft
Windchill 27 °F
Dew Point 22 °F
Humidity 84%
Rainfall 0.00 in
Snow Depth Not available.
UV 0 out of 12
Pollen .10 out of 12
Air Quality Not available.
Flu Activity Not available.
METAR KFCS 260958Z AUTO 19006KT 10SM OVC016 M03/M05 A3015 RMK AO2 PRESRR SLP247 T10341047

More Conditions Fewer Conditions

10-Day Weather Forecast

Almanac

Astronomy

Nov. 26, 2014 Rise Set
Actual Time
Civil Twilight
Nautical Twilight
Astronomical Twilight
Moon
Length of Visible Light
Length of Day
Tomorrow will be .
, % of the Moon is Illuminated

Today's Extremes

State Highs State Lows

Community

WunderPhotos

Upload Photos

1,773,704 photos uploaded!

WunderBlogs® & News

Nearby

Air Quality

  Air Quality AQ Index Pollutant
Not available.

Snow Depth

Station Depth Elevation

Earthquake Activity

City Distance Mag. Time & Date
Minimum magnitude displayed is 2.5.

Coastal Water Temperatures

Place Temperature

Nearby Weather Stations